sensor_id;sensor_type;location;lat;lon;timestamp;pressure;altitude;pressure_sealevel;temperature;humidity
24788;BME280;12883;52.662;5.196;2022-10-16T00:01:53;100760.47;;;14.35;100.00
24788;BME280;12883;52.662;5.196;2022-10-16T00:04:19;100767.91;;;14.33;100.00
24788;BME280;12883;52.662;5.196;2022-10-16T00:06:44;100754.25;;;14.41;100.00
24788;BME280;12883;52.662;5.196;2022-10-16T00:09:10;100763.88;;;14.42;100.00
24788;BME280;12883;52.662;5.196;2022-10-16T00:11:37;100755.28;;;14.40;100.00
24788;BME280;12883;52.662;5.196;2022-10-16T00:14:06;100745.03;;;14.37;100.00
24788;BME280;12883;52.662;5.196;2022-10-16T00:16:33;100746.53;;;14.33;100.00
24788;BME280;12883;52.662;5.196;2022-10-16T00:18:59;100738.91;;;14.36;100.00
24788;BME280;12883;52.662;5.196;2022-10-16T00:21:27;100744.00;;;14.38;100.00
24788;BME280;12883;52.662;5.196;2022-10-16T00:23:55;100740.16;;;14.34;100.00
24788;BME280;12883;52.662;5.196;2022-10-16T00:26:21;100741.31;;;14.38;100.00
24788;BME280;12883;52.662;5.196;2022-10-16T00:28:48;100745.50;;;14.34;100.00
24788;BME280;12883;52.662;5.196;2022-10-16T00:31:15;100736.03;;;14.20;100.00
24788;BME280;12883;52.662;5.196;2022-10-16T00:33:41;100736.75;;;14.27;100.00
24788;BME280;12883;52.662;5.196;2022-10-16T00:36:10;100737.84;;;14.37;100.00
24788;BME280;12883;52.662;5.196;2022-10-16T00:38:36;100745.19;;;14.42;100.00
24788;BME280;12883;52.662;5.196;2022-10-16T00:41:03;100771.31;;;14.40;100.00
24788;BME280;12883;52.662;5.196;2022-10-16T00:43:42;100744.72;;;14.45;100.00
24788;BME280;12883;52.662;5.196;2022-10-16T00:48:36;100738.91;;;14.36;100.00
24788;BME280;12883;52.662;5.196;2022-10-16T00:51:01;100742.56;;;14.53;100.00
24788;BME280;12883;52.662;5.196;2022-10-16T00:53:27;100742.66;;;14.47;100.00
24788;BME280;12883;52.662;5.196;2022-10-16T00:55:53;100734.41;;;14.48;100.00
24788;BME280;12883;52.662;5.196;2022-10-16T00:58:19;100732.66;;;14.42;100.00
24788;BME280;12883;52.662;5.196;2022-10-16T01:00:45;100745.41;;;14.40;100.00
24788;BME280;12883;52.662;5.196;2022-10-16T01:03:43;100746.38;;;14.46;100.00
24788;BME280;12883;52.662;5.196;2022-10-16T01:11:53;100741.63;;;14.30;100.00
24788;BME280;12883;52.662;5.196;2022-10-16T01:14:27;100745.03;;;14.37;100.00
24788;BME280;12883;52.662;5.196;2022-10-16T01:17:04;100746.09;;;14.36;100.00
24788;BME280;12883;52.662;5.196;2022-10-16T01:22:04;100728.88;;;14.14;100.00
24788;BME280;12883;52.662;5.196;2022-10-16T01:24:49;100761.66;;;14.39;100.00
24788;BME280;12883;52.662;5.196;2022-10-16T01:27:26;100765.97;;;14.40;100.00
24788;BME280;12883;52.662;5.196;2022-10-16T01:30:02;100745.28;;;14.35;100.00
24788;BME280;12883;52.662;5.196;2022-10-16T01:35:26;100752.25;;;14.36;100.00
24788;BME280;12883;52.662;5.196;2022-10-16T01:38:03;100758.84;;;14.34;100.00
24788;BME280;12883;52.662;5.196;2022-10-16T01:40:32;100768.34;;;14.30;100.00
24788;BME280;12883;52.662;5.196;2022-10-16T01:43:03;100743.03;;;14.32;100.00
24788;BME280;12883;52.662;5.196;2022-10-16T01:45:31;100718.16;;;14.02;100.00
24788;BME280;12883;52.662;5.196;2022-10-16T01:48:00;100759.38;;;14.24;100.00
24788;BME280;12883;52.662;5.196;2022-10-16T01:50:26;100735.13;;;14.08;100.00
24788;BME280;12883;52.662;5.196;2022-10-16T01:52:54;100759.28;;;13.95;100.00
24788;BME280;12883;52.662;5.196;2022-10-16T01:55:31;100758.34;;;14.25;100.00
24788;BME280;12883;52.662;5.196;2022-10-16T01:57:59;100758.81;;;14.16;100.00
24788;BME280;12883;52.662;5.196;2022-10-16T02:00:26;100759.66;;;14.16;100.00
24788;BME280;12883;52.662;5.196;2022-10-16T02:02:53;100769.28;;;14.17;100.00
24788;BME280;12883;52.662;5.196;2022-10-16T02:05:30;100767.72;;;14.10;100.00
24788;BME280;12883;52.662;5.196;2022-10-16T02:07:56;100775.13;;;14.08;100.00
24788;BME280;12883;52.662;5.196;2022-10-16T02:10:23;100752.69;;;13.97;100.00
24788;BME280;12883;52.662;5.196;2022-10-16T02:13:13;100771.44;;;14.09;100.00
24788;BME280;12883;52.662;5.196;2022-10-16T02:15:42;100764.69;;;14.06;100.00
24788;BME280;12883;52.662;5.196;2022-10-16T02:18:08;100768.09;;;14.13;100.00
24788;BME280;12883;52.662;5.196;2022-10-16T02:20:47;100753.25;;;13.99;100.00
24788;BME280;12883;52.662;5.196;2022-10-16T02:23:27;100693.19;;;13.61;100.00
24788;BME280;12883;52.662;5.196;2022-10-16T02:25:56;100782.47;;;14.12;100.00
24788;BME280;12883;52.662;5.196;2022-10-16T02:28:33;100774.19;;;14.20;100.00
24788;BME280;12883;52.662;5.196;2022-10-16T02:31:03;100778.13;;;14.18;100.00
24788;BME280;12883;52.662;5.196;2022-10-16T02:33:30;100781.81;;;14.17;100.00
24788;BME280;12883;52.662;5.196;2022-10-16T02:35:57;100744.09;;;13.95;100.00
24788;BME280;12883;52.662;5.196;2022-10-16T02:38:24;100782.44;;;14.19;100.00
24788;BME280;12883;52.662;5.196;2022-10-16T02:40:50;100773.56;;;14.25;100.00
24788;BME280;12883;52.662;5.196;2022-10-16T02:43:16;100767.22;;;14.19;100.00
24788;BME280;12883;52.662;5.196;2022-10-16T02:45:42;100779.69;;;14.25;100.00
24788;BME280;12883;52.662;5.196;2022-10-16T02:48:07;100741.59;;;14.00;100.00
24788;BME280;12883;52.662;5.196;2022-10-16T02:50:32;100789.78;;;14.23;100.00
24788;BME280;12883;52.662;5.196;2022-10-16T02:52:58;100788.59;;;14.19;100.00
24788;BME280;12883;52.662;5.196;2022-10-16T02:55:23;100788.19;;;14.16;100.00
24788;BME280;12883;52.662;5.196;2022-10-16T02:57:49;100787.78;;;14.19;100.00
24788;BME280;12883;52.662;5.196;2022-10-16T03:00:16;100793.50;;;14.16;100.00
24788;BME280;12883;52.662;5.196;2022-10-16T03:02:41;100794.78;;;14.13;100.00
24788;BME280;12883;52.662;5.196;2022-10-16T03:05:07;100797.19;;;14.21;100.00
24788;BME280;12883;52.662;5.196;2022-10-16T03:07:33;100794.41;;;14.10;100.00
24788;BME280;12883;52.662;5.196;2022-10-16T03:09:59;100787.44;;;14.09;100.00
24788;BME280;12883;52.662;5.196;2022-10-16T03:12:28;100798.47;;;14.19;100.00
24788;BME280;12883;52.662;5.196;2022-10-16T03:14:54;100803.41;;;14.15;100.00
24788;BME280;12883;52.662;5.196;2022-10-16T03:17:19;100814.47;;;14.19;100.00
24788;BME280;12883;52.662;5.196;2022-10-16T03:19:45;100801.13;;;14.19;100.00
24788;BME280;12883;52.662;5.196;2022-10-16T03:22:10;100819.34;;;14.22;100.00
24788;BME280;12883;52.662;5.196;2022-10-16T03:24:36;100817.53;;;14.16;100.00
24788;BME280;12883;52.662;5.196;2022-10-16T03:27:01;100812.81;;;14.18;100.00
24788;BME280;12883;52.662;5.196;2022-10-16T03:29:27;100803.41;;;14.15;100.00
24788;BME280;12883;52.662;5.196;2022-10-16T03:31:54;100815.69;;;14.16;100.00
24788;BME280;12883;52.662;5.196;2022-10-16T03:34:19;100807.63;;;14.23;100.00
24788;BME280;12883;52.662;5.196;2022-10-16T03:36:45;100815.63;;;14.23;100.00
24788;BME280;12883;52.662;5.196;2022-10-16T03:39:10;100831.66;;;14.23;100.00
24788;BME280;12883;52.662;5.196;2022-10-16T03:41:36;100834.94;;;14.25;100.00
24788;BME280;12883;52.662;5.196;2022-10-16T03:44:01;100789.25;;;13.97;100.00
24788;BME280;12883;52.662;5.196;2022-10-16T03:46:26;100830.03;;;14.22;100.00
24788;BME280;12883;52.662;5.196;2022-10-16T03:48:52;100833.28;;;14.24;100.00
24788;BME280;12883;52.662;5.196;2022-10-16T03:51:17;100843.75;;;14.25;100.00
24788;BME280;12883;52.662;5.196;2022-10-16T03:53:42;100842.13;;;14.24;100.00
24788;BME280;12883;52.662;5.196;2022-10-16T03:56:08;100761.94;;;13.77;100.00
24788;BME280;12883;52.662;5.196;2022-10-16T03:58:33;100834.31;;;14.23;100.00
24788;BME280;12883;52.662;5.196;2022-10-16T04:00:59;100824.69;;;14.22;100.00
24788;BME280;12883;52.662;5.196;2022-10-16T04:03:24;100833.53;;;14.22;100.00
24788;BME280;12883;52.662;5.196;2022-10-16T04:05:49;100832.84;;;14.27;100.00
24788;BME280;12883;52.662;5.196;2022-10-16T04:08:16;100834.47;;;14.28;100.00
24788;BME280;12883;52.662;5.196;2022-10-16T04:10:44;100836.31;;;14.27;100.00
24788;BME280;12883;52.662;5.196;2022-10-16T04:13:10;100838.19;;;14.27;100.00
24788;BME280;12883;52.662;5.196;2022-10-16T04:15:36;100843.91;;;14.30;100.00
24788;BME280;12883;52.662;5.196;2022-10-16T04:18:01;100852.59;;;14.26;100.00
24788;BME280;12883;52.662;5.196;2022-10-16T04:20:26;100855.09;;;14.21;100.00
24788;BME280;12883;52.662;5.196;2022-10-16T04:22:52;100846.50;;;14.19;100.00
24788;BME280;12883;52.662;5.196;2022-10-16T04:25:18;100848.66;;;14.28;100.00
24788;BME280;12883;52.662;5.196;2022-10-16T04:27:43;100860.13;;;14.29;100.00
24788;BME280;12883;52.662;5.196;2022-10-16T04:30:09;100856.53;;;14.17;100.00
24788;BME280;12883;52.662;5.196;2022-10-16T04:32:34;100859.19;;;14.17;100.00
24788;BME280;12883;52.662;5.196;2022-10-16T04:35:00;100857.09;;;14.25;100.00
24788;BME280;12883;52.662;5.196;2022-10-16T04:37:26;100850.97;;;14.25;100.00
24788;BME280;12883;52.662;5.196;2022-10-16T04:39:54;100859.19;;;14.23;100.00
24788;BME280;12883;52.662;5.196;2022-10-16T04:42:20;100860.44;;;14.21;100.00
24788;BME280;12883;52.662;5.196;2022-10-16T04:44:46;100857.97;;;14.19;100.00
24788;BME280;12883;52.662;5.196;2022-10-16T04:47:12;100861.00;;;14.23;100.00
24788;BME280;12883;52.662;5.196;2022-10-16T04:49:38;100863.31;;;14.19;100.00
24788;BME280;12883;52.662;5.196;2022-10-16T04:52:03;100868.25;;;14.16;100.00
24788;BME280;12883;52.662;5.196;2022-10-16T04:54:28;100864.78;;;14.15;100.00
24788;BME280;12883;52.662;5.196;2022-10-16T04:56:54;100865.81;;;14.14;100.00
24788;BME280;12883;52.662;5.196;2022-10-16T04:59:20;100830.25;;;13.96;100.00
24788;BME280;12883;52.662;5.196;2022-10-16T05:01:45;100871.94;;;14.15;100.00
24788;BME280;12883;52.662;5.196;2022-10-16T05:04:11;100864.53;;;14.17;100.00
24788;BME280;12883;52.662;5.196;2022-10-16T05:06:38;100868.69;;;14.13;100.00
24788;BME280;12883;52.662;5.196;2022-10-16T05:09:06;100832.03;;;13.84;100.00
24788;BME280;12883;52.662;5.196;2022-10-16T05:11:32;100881.47;;;14.11;100.00
24788;BME280;12883;52.662;5.196;2022-10-16T05:13:57;100900.75;;;14.06;100.00
24788;BME280;12883;52.662;5.196;2022-10-16T05:16:22;100886.41;;;14.07;100.00
24788;BME280;12883;52.662;5.196;2022-10-16T05:18:48;100904.25;;;14.07;100.00
24788;BME280;12883;52.662;5.196;2022-10-16T05:21:13;100903.22;;;14.08;100.00
24788;BME280;12883;52.662;5.196;2022-10-16T05:23:39;100910.06;;;14.04;100.00
24788;BME280;12883;52.662;5.196;2022-10-16T05:26:04;100924.19;;;14.04;100.00
24788;BME280;12883;52.662;5.196;2022-10-16T05:28:30;100922.78;;;14.02;100.00
24788;BME280;12883;52.662;5.196;2022-10-16T05:30:56;100917.22;;;14.03;100.00
24788;BME280;12883;52.662;5.196;2022-10-16T05:33:23;100914.34;;;14.05;100.00
24788;BME280;12883;52.662;5.196;2022-10-16T05:35:49;100912.28;;;14.07;100.00
24788;BME280;12883;52.662;5.196;2022-10-16T05:38:15;100918.06;;;14.04;100.00
24788;BME280;12883;52.662;5.196;2022-10-16T05:40:41;100919.25;;;14.08;100.00
24788;BME280;12883;52.662;5.196;2022-10-16T05:43:07;100924.66;;;14.01;100.00
24788;BME280;12883;52.662;5.196;2022-10-16T05:45:32;100912.84;;;14.09;100.00
24788;BME280;12883;52.662;5.196;2022-10-16T05:47:57;100914.34;;;14.05;100.00
24788;BME280;12883;52.662;5.196;2022-10-16T05:50:23;100917.41;;;14.08;100.00
24788;BME280;12883;52.662;5.196;2022-10-16T05:52:48;100919.25;;;14.08;100.00
24788;BME280;12883;52.662;5.196;2022-10-16T05:55:13;100918.56;;;14.12;100.00
24788;BME280;12883;52.662;5.196;2022-10-16T05:57:39;100856.34;;;13.76;100.00
24788;BME280;12883;52.662;5.196;2022-10-16T06:00:05;100892.28;;;13.91;100.00
24788;BME280;12883;52.662;5.196;2022-10-16T06:02:30;100920.59;;;14.17;100.00
24788;BME280;12883;52.662;5.196;2022-10-16T06:04:56;100917.91;;;14.17;100.00
24788;BME280;12883;52.662;5.196;2022-10-16T06:07:22;100896.84;;;14.09;100.00
24788;BME280;12883;52.662;5.196;2022-10-16T06:09:48;100904.47;;;14.05;100.00
24788;BME280;12883;52.662;5.196;2022-10-16T06:12:15;100929.00;;;14.20;100.00
24788;BME280;12883;52.662;5.196;2022-10-16T06:14:40;100924.03;;;14.24;100.00
24788;BME280;12883;52.662;5.196;2022-10-16T06:17:05;100924.53;;;14.14;100.00
24788;BME280;12883;52.662;5.196;2022-10-16T06:19:31;100942.59;;;14.19;100.00
24788;BME280;12883;52.662;5.196;2022-10-16T06:21:56;100938.47;;;14.16;100.00
24788;BME280;12883;52.662;5.196;2022-10-16T06:24:23;100928.00;;;14.15;100.00
24788;BME280;12883;52.662;5.196;2022-10-16T06:26:48;100917.72;;;13.94;100.00
24788;BME280;12883;52.662;5.196;2022-10-16T06:29:14;100959.22;;;14.14;100.00
24788;BME280;12883;52.662;5.196;2022-10-16T06:31:39;100945.06;;;14.14;100.00
24788;BME280;12883;52.662;5.196;2022-10-16T06:34:04;100958.41;;;14.14;100.00
24788;BME280;12883;52.662;5.196;2022-10-16T06:36:34;100963.53;;;14.15;100.00
24788;BME280;12883;52.662;5.196;2022-10-16T06:38:59;100958.09;;;14.04;100.00
24788;BME280;12883;52.662;5.196;2022-10-16T06:41:25;100965.56;;;14.13;100.00
24788;BME280;12883;52.662;5.196;2022-10-16T06:43:50;100960.47;;;14.12;100.00
24788;BME280;12883;52.662;5.196;2022-10-16T06:46:20;100876.75;;;13.33;100.00
24788;BME280;12883;52.662;5.196;2022-10-16T06:48:46;100979.56;;;14.09;100.00
24788;BME280;12883;52.662;5.196;2022-10-16T06:51:14;100970.78;;;14.08;100.00
24788;BME280;12883;52.662;5.196;2022-10-16T06:53:42;100980.03;;;14.06;100.00
24788;BME280;12883;52.662;5.196;2022-10-16T06:56:12;100993.75;;;14.09;100.00
24788;BME280;12883;52.662;5.196;2022-10-16T06:58:38;100995.59;;;14.09;100.00
24788;BME280;12883;52.662;5.196;2022-10-16T07:01:05;101007.88;;;14.10;100.00
24788;BME280;12883;52.662;5.196;2022-10-16T07:03:31;101015.91;;;14.10;100.00
24788;BME280;12883;52.662;5.196;2022-10-16T07:05:56;101018.16;;;14.13;100.00
24788;BME280;12883;52.662;5.196;2022-10-16T07:08:22;101035.84;;;14.07;100.00
24788;BME280;12883;52.662;5.196;2022-10-16T07:10:48;101010.16;;;14.06;100.00
24788;BME280;12883;52.662;5.196;2022-10-16T07:13:13;101046.03;;;14.17;100.00
24788;BME280;12883;52.662;5.196;2022-10-16T07:15:40;101048.53;;;14.12;100.00
24788;BME280;12883;52.662;5.196;2022-10-16T07:18:05;101033.81;;;14.03;100.00
24788;BME280;12883;52.662;5.196;2022-10-16T07:20:31;101064.16;;;14.08;100.00
24788;BME280;12883;52.662;5.196;2022-10-16T07:22:56;101065.16;;;14.14;100.00
24788;BME280;12883;52.662;5.196;2022-10-16T07:25:22;101068.41;;;14.16;100.00
24788;BME280;12883;52.662;5.196;2022-10-16T07:27:47;101078.84;;;14.24;100.00
24788;BME280;12883;52.662;5.196;2022-10-16T07:30:12;101084.44;;;14.22;100.00
24788;BME280;12883;52.662;5.196;2022-10-16T07:32:38;101094.00;;;14.30;100.00
24788;BME280;12883;52.662;5.196;2022-10-16T07:35:04;101106.31;;;14.31;100.00
24788;BME280;12883;52.662;5.196;2022-10-16T07:37:30;101100.56;;;14.34;100.00
24788;BME280;12883;52.662;5.196;2022-10-16T07:39:55;101102.97;;;14.42;100.00
24788;BME280;12883;52.662;5.196;2022-10-16T07:42:20;101099.44;;;14.48;100.00
24788;BME280;12883;52.662;5.196;2022-10-16T07:44:46;101102.09;;;14.48;100.00
24788;BME280;12883;52.662;5.196;2022-10-16T07:47:11;101096.75;;;14.48;100.00
24788;BME280;12883;52.662;5.196;2022-10-16T07:49:36;101104.13;;;14.52;100.00
24788;BME280;12883;52.662;5.196;2022-10-16T07:52:02;101112.31;;;14.57;100.00
24788;BME280;12883;52.662;5.196;2022-10-16T07:54:27;101114.00;;;14.52;100.00
24788;BME280;12883;52.662;5.196;2022-10-16T07:56:53;101120.31;;;14.57;100.00
24788;BME280;12883;52.662;5.196;2022-10-16T07:59:18;101122.53;;;14.60;100.00
24788;BME280;12883;52.662;5.196;2022-10-16T08:01:43;101135.50;;;14.57;100.00
24788;BME280;12883;52.662;5.196;2022-10-16T08:04:09;101080.47;;;14.31;100.00
24788;BME280;12883;52.662;5.196;2022-10-16T08:06:36;101139.78;;;14.64;100.00
24788;BME280;12883;52.662;5.196;2022-10-16T08:09:03;101141.47;;;14.59;100.00
24788;BME280;12883;52.662;5.196;2022-10-16T08:11:28;101141.84;;;14.62;100.00
24788;BME280;12883;52.662;5.196;2022-10-16T08:13:54;101141.78;;;14.69;100.00
24788;BME280;12883;52.662;5.196;2022-10-16T08:16:20;101151.41;;;14.76;100.00
24788;BME280;12883;52.662;5.196;2022-10-16T08:18:45;101108.22;;;14.55;100.00
24788;BME280;12883;52.662;5.196;2022-10-16T08:21:16;101163.94;;;14.76;100.00
24788;BME280;12883;52.662;5.196;2022-10-16T08:23:42;101157.53;;;14.77;100.00
24788;BME280;12883;52.662;5.196;2022-10-16T08:26:08;101171.66;;;14.83;100.00
24788;BME280;12883;52.662;5.196;2022-10-16T08:28:34;101161.81;;;14.84;100.00
24788;BME280;12883;52.662;5.196;2022-10-16T08:31:12;101173.41;;;14.96;100.00
24788;BME280;12883;52.662;5.196;2022-10-16T08:33:38;101180.63;;;14.95;100.00
24788;BME280;12883;52.662;5.196;2022-10-16T08:36:05;101181.00;;;14.99;100.00
24788;BME280;12883;52.662;5.196;2022-10-16T08:38:30;101192.84;;;15.09;100.00
24788;BME280;12883;52.662;5.196;2022-10-16T08:49:30;101202.75;;;15.27;100.00
24788;BME280;12883;52.662;5.196;2022-10-16T08:51:56;101212.19;;;15.29;100.00
24788;BME280;12883;52.662;5.196;2022-10-16T08:56:56;101222.44;;;15.39;100.00
24788;BME280;12883;52.662;5.196;2022-10-16T08:59:21;101219.31;;;15.42;100.00
24788;BME280;12883;52.662;5.196;2022-10-16T09:01:49;101220.94;;;15.43;100.00
24788;BME280;12883;52.662;5.196;2022-10-16T09:04:52;101238.56;;;15.50;100.00
24788;BME280;12883;52.662;5.196;2022-10-16T09:07:31;101228.28;;;15.47;100.00
24788;BME280;12883;52.662;5.196;2022-10-16T09:12:58;101252.41;;;15.65;100.00
24788;BME280;12883;52.662;5.196;2022-10-16T09:15:48;101257.75;;;15.65;100.00
24788;BME280;12883;52.662;5.196;2022-10-16T09:18:21;101261.03;;;15.67;100.00
24788;BME280;12883;52.662;5.196;2022-10-16T09:23:34;101274.47;;;15.79;100.00
24788;BME280;12883;52.662;5.196;2022-10-16T09:26:01;101262.97;;;15.78;100.00
24788;BME280;12883;52.662;5.196;2022-10-16T09:28:27;101268.31;;;15.78;100.00
24788;BME280;12883;52.662;5.196;2022-10-16T09:30:52;101279.94;;;15.90;100.00
24788;BME280;12883;52.662;5.196;2022-10-16T09:33:22;101291.03;;;15.94;100.00
24788;BME280;12883;52.662;5.196;2022-10-16T09:35:54;101294.50;;;15.94;100.00
24788;BME280;12883;52.662;5.196;2022-10-16T09:38:32;101307.31;;;15.92;100.00
24788;BME280;12883;52.662;5.196;2022-10-16T09:41:00;101311.03;;;15.91;100.00
24788;BME280;12883;52.662;5.196;2022-10-16T09:44:46;101302.31;;;15.96;100.00
24788;BME280;12883;52.662;5.196;2022-10-16T09:46:38;101297.38;;;15.93;100.00
24788;BME280;12883;52.662;5.196;2022-10-16T09:49:22;101266.25;;;15.38;100.00
24788;BME280;12883;52.662;5.196;2022-10-16T09:51:48;101291.50;;;15.66;100.00
24788;BME280;12883;52.662;5.196;2022-10-16T09:54:19;101347.16;;;16.00;100.00
24788;BME280;12883;52.662;5.196;2022-10-16T09:56:45;101333.94;;;16.05;100.00
24788;BME280;12883;52.662;5.196;2022-10-16T09:59:13;101334.00;;;16.17;100.00
24788;BME280;12883;52.662;5.196;2022-10-16T10:01:41;101285.00;;;15.98;100.00
24788;BME280;12883;52.662;5.196;2022-10-16T10:04:08;101354.41;;;16.36;100.00
24788;BME280;12883;52.662;5.196;2022-10-16T10:06:40;101342.59;;;16.43;100.00
24788;BME280;12883;52.662;5.196;2022-10-16T10:09:26;101358.13;;;16.35;100.00
24788;BME280;12883;52.662;5.196;2022-10-16T10:12:03;101298.97;;;16.00;100.00
24788;BME280;12883;52.662;5.196;2022-10-16T10:14:40;101367.75;;;16.42;100.00
24788;BME280;12883;52.662;5.196;2022-10-16T10:19:39;101376.09;;;16.52;100.00
24788;BME280;12883;52.662;5.196;2022-10-16T10:28:18;101384.88;;;16.59;100.00
24788;BME280;12883;52.662;5.196;2022-10-16T10:36:19;101408.69;;;16.67;100.00
24788;BME280;12883;52.662;5.196;2022-10-16T10:41:51;101421.09;;;16.62;100.00
24788;BME280;12883;52.662;5.196;2022-10-16T10:44:56;101426.09;;;16.58;100.00
24788;BME280;12883;52.662;5.196;2022-10-16T10:50:22;101400.34;;;16.39;100.00
24788;BME280;12883;52.662;5.196;2022-10-16T10:53:22;101436.38;;;16.61;100.00
24788;BME280;12883;52.662;5.196;2022-10-16T10:58:56;101445.31;;;16.55;100.00
24788;BME280;12883;52.662;5.196;2022-10-16T11:02:33;101449.25;;;16.53;100.00
24788;BME280;12883;52.662;5.196;2022-10-16T11:08:08;101462.44;;;16.54;100.00
24788;BME280;12883;52.662;5.196;2022-10-16T11:10:44;101404.13;;;16.07;100.00
24788;BME280;12883;52.662;5.196;2022-10-16T11:13:23;101469.75;;;16.41;100.00
24788;BME280;12883;52.662;5.196;2022-10-16T11:15:53;101459.28;;;16.39;100.00
24788;BME280;12883;52.662;5.196;2022-10-16T11:18:44;101426.56;;;16.31;100.00
24788;BME280;12883;52.662;5.196;2022-10-16T11:21:14;101432.91;;;16.36;100.00
24788;BME280;12883;52.662;5.196;2022-10-16T11:24:01;101479.47;;;16.60;100.00
24788;BME280;12883;52.662;5.196;2022-10-16T11:26:34;101468.91;;;16.65;100.00
24788;BME280;12883;52.662;5.196;2022-10-16T11:29:04;101466.78;;;16.73;100.00
24788;BME280;12883;52.662;5.196;2022-10-16T11:31:45;101468.09;;;16.64;100.00
24788;BME280;12883;52.662;5.196;2022-10-16T11:34:27;101480.69;;;16.64;100.00
24788;BME280;12883;52.662;5.196;2022-10-16T11:37:10;101474.41;;;16.52;100.00
24788;BME280;12883;52.662;5.196;2022-10-16T11:39:38;101487.59;;;16.53;100.00
24788;BME280;12883;52.662;5.196;2022-10-16T11:42:21;101488.00;;;16.50;100.00
24788;BME280;12883;52.662;5.196;2022-10-16T11:47:44;101486.22;;;16.44;100.00
24788;BME280;12883;52.662;5.196;2022-10-16T11:55:50;101490.88;;;16.55;100.00
24788;BME280;12883;52.662;5.196;2022-10-16T11:58:26;101485.38;;;16.68;100.00
24788;BME280;12883;52.662;5.196;2022-10-16T12:06:37;101449.84;;;16.30;100.00
24788;BME280;12883;52.662;5.196;2022-10-16T12:09:14;101483.41;;;16.57;100.00
24788;BME280;12883;52.662;5.196;2022-10-16T12:11:40;101498.31;;;16.71;100.00
24788;BME280;12883;52.662;5.196;2022-10-16T12:16:38;101495.63;;;16.71;100.00
24788;BME280;12883;52.662;5.196;2022-10-16T12:19:15;101445.31;;;16.55;100.00
24788;BME280;12883;52.662;5.196;2022-10-16T12:21:41;101503.38;;;16.79;100.00
24788;BME280;12883;52.662;5.196;2022-10-16T12:24:21;101504.38;;;16.85;100.00
24788;BME280;12883;52.662;5.196;2022-10-16T12:26:48;101511.16;;;16.87;100.00
24788;BME280;12883;52.662;5.196;2022-10-16T12:31:48;101510.59;;;16.97;100.00
24788;BME280;12883;52.662;5.196;2022-10-16T12:34:41;101515.69;;;17.05;100.00
24788;BME280;12883;52.662;5.196;2022-10-16T12:37:21;101541.53;;;17.17;100.00
24788;BME280;12883;52.662;5.196;2022-10-16T12:39:49;101532.13;;;17.26;100.00
24788;BME280;12883;52.662;5.196;2022-10-16T12:44:48;101537.81;;;17.36;100.00
24788;BME280;12883;52.662;5.196;2022-10-16T12:47:49;101527.06;;;17.36;100.00
24788;BME280;12883;52.662;5.196;2022-10-16T12:50:31;101538.56;;;17.43;100.00
24788;BME280;12883;52.662;5.196;2022-10-16T12:52:58;101517.59;;;17.34;100.00
24788;BME280;12883;52.662;5.196;2022-10-16T12:55:23;101514.63;;;17.42;100.00
24788;BME280;12883;52.662;5.196;2022-10-16T13:00:53;101449.53;;;16.99;100.00
24788;BME280;12883;52.662;5.196;2022-10-16T13:03:48;101545.09;;;17.47;100.00
24788;BME280;12883;52.662;5.196;2022-10-16T13:06:34;101529.84;;;17.48;100.00
24788;BME280;12883;52.662;5.196;2022-10-16T13:09:28;101525.38;;;17.42;100.00
24788;BME280;12883;52.662;5.196;2022-10-16T13:18:00;101544.94;;;17.60;100.00
24788;BME280;12883;52.662;5.196;2022-10-16T13:26:15;101556.25;;;17.62;100.00
24788;BME280;12883;52.662;5.196;2022-10-16T13:28:43;101557.78;;;17.58;100.00
24788;BME280;12883;52.662;5.196;2022-10-16T13:31:24;101558.69;;;17.52;100.00
24788;BME280;12883;52.662;5.196;2022-10-16T13:33:52;101555.41;;;17.50;100.00
24788;BME280;12883;52.662;5.196;2022-10-16T13:36:26;101569.78;;;17.56;100.00
24788;BME280;12883;52.662;5.196;2022-10-16T13:39:13;101562.41;;;17.51;100.00
24788;BME280;12883;52.662;5.196;2022-10-16T13:41:39;101536.22;;;17.29;100.00
24788;BME280;12883;52.662;5.196;2022-10-16T13:44:05;101576.03;;;17.50;100.00
24788;BME280;12883;52.662;5.196;2022-10-16T13:46:37;101572.25;;;17.57;100.00
24788;BME280;12883;52.662;5.196;2022-10-16T13:49:14;101577.47;;;17.52;100.00
24788;BME280;12883;52.662;5.196;2022-10-16T13:51:40;101577.69;;;17.51;100.00
24788;BME280;12883;52.662;5.196;2022-10-16T13:54:09;101581.03;;;17.46;100.00
24788;BME280;12883;52.662;5.196;2022-10-16T13:56:36;101595.19;;;17.35;100.00
24788;BME280;12883;52.662;5.196;2022-10-16T13:59:06;101587.00;;;17.30;100.00
24788;BME280;12883;52.662;5.196;2022-10-16T14:01:43;101601.09;;;17.26;100.00
24788;BME280;12883;52.662;5.196;2022-10-16T14:04:11;101606.50;;;17.19;100.00
24788;BME280;12883;52.662;5.196;2022-10-16T14:06:41;101560.00;;;16.89;100.00
24788;BME280;12883;52.662;5.196;2022-10-16T14:09:18;101618.13;;;17.13;100.00
24788;BME280;12883;52.662;5.196;2022-10-16T14:11:49;101616.47;;;17.12;100.00
24788;BME280;12883;52.662;5.196;2022-10-16T14:14:17;101613.44;;;17.09;100.00
24788;BME280;12883;52.662;5.196;2022-10-16T14:16:44;101612.00;;;17.06;100.00
24788;BME280;12883;52.662;5.196;2022-10-16T14:19:19;101619.41;;;17.11;100.00
24788;BME280;12883;52.662;5.196;2022-10-16T14:21:46;101617.00;;;17.03;100.00
24788;BME280;12883;52.662;5.196;2022-10-16T14:24:32;101618.91;;;16.96;100.00
24788;BME280;12883;52.662;5.196;2022-10-16T14:26:58;101546.97;;;16.50;100.00